sensor_id;sensor_type;location;lat;lon;timestamp;P1;durP1;ratioP1;P2;durP2;ratioP2
5787;SDS011;2920;48.158;12.254;2023-03-01T00:01:08;20.15;;;9.45;;
5787;SDS011;2920;48.158;12.254;2023-03-01T00:03:35;16.80;;;9.35;;
5787;SDS011;2920;48.158;12.254;2023-03-01T00:06:01;19.77;;;9.60;;
5787;SDS011;2920;48.158;12.254;2023-03-01T00:08:27;19.05;;;9.95;;
5787;SDS011;2920;48.158;12.254;2023-03-01T00:13:41;18.88;;;9.77;;
5787;SDS011;2920;48.158;12.254;2023-03-01T00:16:12;18.58;;;10.07;;
5787;SDS011;2920;48.158;12.254;2023-03-01T00:18:39;19.23;;;8.23;;
5787;SDS011;2920;48.158;12.254;2023-03-01T00:21:04;20.10;;;9.95;;
5787;SDS011;2920;48.158;12.254;2023-03-01T00:23:30;20.20;;;9.68;;
5787;SDS011;2920;48.158;12.254;2023-03-01T00:25:56;20.20;;;9.27;;
5787;SDS011;2920;48.158;12.254;2023-03-01T00:28:21;20.30;;;10.18;;
5787;SDS011;2920;48.158;12.254;2023-03-01T00:30:46;21.50;;;9.73;;
5787;SDS011;2920;48.158;12.254;2023-03-01T00:33:12;16.58;;;9.23;;
5787;SDS011;2920;48.158;12.254;2023-03-01T00:35:37;19.25;;;10.90;;
5787;SDS011;2920;48.158;12.254;2023-03-01T00:38:03;20.05;;;9.77;;
5787;SDS011;2920;48.158;12.254;2023-03-01T00:40:29;16.77;;;8.60;;
5787;SDS011;2920;48.158;12.254;2023-03-01T00:42:55;16.10;;;8.80;;
5787;SDS011;2920;48.158;12.254;2023-03-01T00:45:21;22.75;;;9.65;;
5787;SDS011;2920;48.158;12.254;2023-03-01T00:47:46;18.55;;;9.10;;
5787;SDS011;2920;48.158;12.254;2023-03-01T00:50:13;19.17;;;9.48;;
5787;SDS011;2920;48.158;12.254;2023-03-01T00:52:38;26.20;;;9.15;;
5787;SDS011;2920;48.158;12.254;2023-03-01T00:55:04;19.52;;;9.20;;
5787;SDS011;2920;48.158;12.254;2023-03-01T00:57:30;19.73;;;10.13;;
5787;SDS011;2920;48.158;12.254;2023-03-01T00:59:55;18.67;;;8.80;;
5787;SDS011;2920;48.158;12.254;2023-03-01T01:02:21;20.35;;;9.73;;
5787;SDS011;2920;48.158;12.254;2023-03-01T01:04:46;19.98;;;10.43;;
5787;SDS011;2920;48.158;12.254;2023-03-01T01:07:12;18.90;;;9.98;;
5787;SDS011;2920;48.158;12.254;2023-03-01T01:09:38;15.48;;;9.02;;
5787;SDS011;2920;48.158;12.254;2023-03-01T01:12:03;20.77;;;9.50;;
5787;SDS011;2920;48.158;12.254;2023-03-01T01:14:29;20.52;;;9.23;;
5787;SDS011;2920;48.158;12.254;2023-03-01T01:16:54;22.20;;;10.38;;
5787;SDS011;2920;48.158;12.254;2023-03-01T01:19:20;22.02;;;9.13;;
5787;SDS011;2920;48.158;12.254;2023-03-01T01:21:46;18.38;;;10.35;;
5787;SDS011;2920;48.158;12.254;2023-03-01T01:24:12;21.25;;;9.85;;
5787;SDS011;2920;48.158;12.254;2023-03-01T01:26:38;19.67;;;10.13;;
5787;SDS011;2920;48.158;12.254;2023-03-01T01:29:04;21.58;;;10.00;;
5787;SDS011;2920;48.158;12.254;2023-03-01T01:31:30;16.65;;;9.25;;
5787;SDS011;2920;48.158;12.254;2023-03-01T01:33:56;20.73;;;9.93;;
5787;SDS011;2920;48.158;12.254;2023-03-01T01:36:22;19.50;;;9.52;;
5787;SDS011;2920;48.158;12.254;2023-03-01T01:38:48;18.83;;;9.77;;
5787;SDS011;2920;48.158;12.254;2023-03-01T01:41:13;17.38;;;9.57;;
5787;SDS011;2920;48.158;12.254;2023-03-01T01:43:46;19.02;;;10.07;;
5787;SDS011;2920;48.158;12.254;2023-03-01T01:46:31;18.92;;;9.75;;
5787;SDS011;2920;48.158;12.254;2023-03-01T01:49:01;20.63;;;9.38;;
5787;SDS011;2920;48.158;12.254;2023-03-01T01:51:52;23.58;;;10.73;;
5787;SDS011;2920;48.158;12.254;2023-03-01T01:54:28;20.67;;;9.18;;
5787;SDS011;2920;48.158;12.254;2023-03-01T01:56:58;22.15;;;10.48;;
5787;SDS011;2920;48.158;12.254;2023-03-01T01:59:31;18.33;;;10.38;;
5787;SDS011;2920;48.158;12.254;2023-03-01T02:01:57;20.05;;;10.25;;
5787;SDS011;2920;48.158;12.254;2023-03-01T02:04:24;16.50;;;9.45;;
5787;SDS011;2920;48.158;12.254;2023-03-01T02:09:26;19.45;;;10.02;;
5787;SDS011;2920;48.158;12.254;2023-03-01T02:11:53;19.77;;;9.25;;
5787;SDS011;2920;48.158;12.254;2023-03-01T02:14:18;20.98;;;10.13;;
5787;SDS011;2920;48.158;12.254;2023-03-01T02:16:44;20.52;;;10.55;;
5787;SDS011;2920;48.158;12.254;2023-03-01T02:19:11;20.75;;;10.25;;
5787;SDS011;2920;48.158;12.254;2023-03-01T02:21:49;21.15;;;10.57;;
5787;SDS011;2920;48.158;12.254;2023-03-01T02:24:28;18.67;;;9.45;;
5787;SDS011;2920;48.158;12.254;2023-03-01T02:26:58;18.00;;;9.02;;
5787;SDS011;2920;48.158;12.254;2023-03-01T02:29:24;17.77;;;9.75;;
5787;SDS011;2920;48.158;12.254;2023-03-01T02:31:49;23.30;;;10.45;;
5787;SDS011;2920;48.158;12.254;2023-03-01T02:34:21;16.65;;;9.40;;
5787;SDS011;2920;48.158;12.254;2023-03-01T02:36:48;18.25;;;9.57;;
5787;SDS011;2920;48.158;12.254;2023-03-01T02:39:30;19.10;;;9.82;;
5787;SDS011;2920;48.158;12.254;2023-03-01T02:41:58;20.23;;;9.38;;
5787;SDS011;2920;48.158;12.254;2023-03-01T02:44:25;19.02;;;10.02;;
5787;SDS011;2920;48.158;12.254;2023-03-01T02:46:51;22.85;;;10.65;;
5787;SDS011;2920;48.158;12.254;2023-03-01T02:57:09;18.92;;;9.82;;
5787;SDS011;2920;48.158;12.254;2023-03-01T02:59:35;19.30;;;9.75;;
5787;SDS011;2920;48.158;12.254;2023-03-01T03:02:04;17.40;;;9.80;;
5787;SDS011;2920;48.158;12.254;2023-03-01T03:04:30;17.88;;;8.88;;
5787;SDS011;2920;48.158;12.254;2023-03-01T03:06:56;20.60;;;9.50;;
5787;SDS011;2920;48.158;12.254;2023-03-01T03:09:22;17.30;;;9.57;;
5787;SDS011;2920;48.158;12.254;2023-03-01T03:11:47;23.02;;;11.23;;
5787;SDS011;2920;48.158;12.254;2023-03-01T03:14:13;20.63;;;10.50;;
5787;SDS011;2920;48.158;12.254;2023-03-01T03:16:41;20.45;;;10.25;;
5787;SDS011;2920;48.158;12.254;2023-03-01T03:19:07;18.23;;;8.73;;
5787;SDS011;2920;48.158;12.254;2023-03-01T03:21:33;22.45;;;10.18;;
5787;SDS011;2920;48.158;12.254;2023-03-01T03:23:58;23.35;;;10.18;;
5787;SDS011;2920;48.158;12.254;2023-03-01T03:26:24;19.13;;;9.95;;
5787;SDS011;2920;48.158;12.254;2023-03-01T03:28:49;18.85;;;9.50;;
5787;SDS011;2920;48.158;12.254;2023-03-01T03:31:15;19.80;;;9.57;;
5787;SDS011;2920;48.158;12.254;2023-03-01T03:33:40;19.48;;;10.25;;
5787;SDS011;2920;48.158;12.254;2023-03-01T03:36:05;21.73;;;10.27;;
5787;SDS011;2920;48.158;12.254;2023-03-01T03:38:31;16.88;;;8.80;;
5787;SDS011;2920;48.158;12.254;2023-03-01T03:41:00;22.80;;;9.98;;
5787;SDS011;2920;48.158;12.254;2023-03-01T03:43:30;24.40;;;10.27;;
5787;SDS011;2920;48.158;12.254;2023-03-01T03:45:57;23.15;;;9.77;;
5787;SDS011;2920;48.158;12.254;2023-03-01T03:48:22;19.42;;;9.93;;
5787;SDS011;2920;48.158;12.254;2023-03-01T03:50:52;20.55;;;10.15;;
5787;SDS011;2920;48.158;12.254;2023-03-01T03:53:19;20.92;;;9.82;;
5787;SDS011;2920;48.158;12.254;2023-03-01T03:55:45;20.60;;;10.32;;
5787;SDS011;2920;48.158;12.254;2023-03-01T03:58:14;22.20;;;11.48;;
5787;SDS011;2920;48.158;12.254;2023-03-01T04:00:41;21.63;;;10.65;;
5787;SDS011;2920;48.158;12.254;2023-03-01T04:03:08;21.38;;;11.13;;
5787;SDS011;2920;48.158;12.254;2023-03-01T04:05:34;22.05;;;10.43;;
5787;SDS011;2920;48.158;12.254;2023-03-01T04:08:00;24.83;;;12.43;;
5787;SDS011;2920;48.158;12.254;2023-03-01T04:10:33;23.08;;;11.23;;
5787;SDS011;2920;48.158;12.254;2023-03-01T04:13:00;19.57;;;10.43;;
5787;SDS011;2920;48.158;12.254;2023-03-01T04:15:26;21.75;;;10.93;;
5787;SDS011;2920;48.158;12.254;2023-03-01T04:17:53;23.13;;;11.32;;
5787;SDS011;2920;48.158;12.254;2023-03-01T04:20:20;19.95;;;10.13;;
5787;SDS011;2920;48.158;12.254;2023-03-01T04:23:00;19.33;;;10.63;;
5787;SDS011;2920;48.158;12.254;2023-03-01T04:25:35;19.17;;;10.38;;
5787;SDS011;2920;48.158;12.254;2023-03-01T04:28:04;22.83;;;10.50;;
5787;SDS011;2920;48.158;12.254;2023-03-01T04:30:30;26.60;;;11.15;;
5787;SDS011;2920;48.158;12.254;2023-03-01T04:33:00;18.17;;;10.23;;
5787;SDS011;2920;48.158;12.254;2023-03-01T04:35:27;16.30;;;9.85;;
5787;SDS011;2920;48.158;12.254;2023-03-01T04:37:52;22.98;;;10.55;;
5787;SDS011;2920;48.158;12.254;2023-03-01T04:40:17;25.65;;;10.85;;
5787;SDS011;2920;48.158;12.254;2023-03-01T04:42:43;24.55;;;11.13;;
5787;SDS011;2920;48.158;12.254;2023-03-01T04:45:08;24.55;;;9.93;;
5787;SDS011;2920;48.158;12.254;2023-03-01T04:47:40;21.48;;;9.55;;
5787;SDS011;2920;48.158;12.254;2023-03-01T04:50:06;24.58;;;10.35;;
5787;SDS011;2920;48.158;12.254;2023-03-01T04:52:32;20.65;;;10.18;;
5787;SDS011;2920;48.158;12.254;2023-03-01T04:54:58;18.88;;;9.90;;
5787;SDS011;2920;48.158;12.254;2023-03-01T04:57:23;23.20;;;10.75;;
5787;SDS011;2920;48.158;12.254;2023-03-01T04:59:48;18.00;;;10.10;;
5787;SDS011;2920;48.158;12.254;2023-03-01T05:02:14;18.27;;;10.45;;
5787;SDS011;2920;48.158;12.254;2023-03-01T05:04:39;20.10;;;10.98;;
5787;SDS011;2920;48.158;12.254;2023-03-01T05:07:04;22.17;;;10.00;;
5787;SDS011;2920;48.158;12.254;2023-03-01T05:09:29;20.55;;;10.45;;
5787;SDS011;2920;48.158;12.254;2023-03-01T05:11:55;20.45;;;10.38;;
5787;SDS011;2920;48.158;12.254;2023-03-01T05:14:20;19.42;;;9.60;;
5787;SDS011;2920;48.158;12.254;2023-03-01T05:16:45;22.55;;;10.57;;
5787;SDS011;2920;48.158;12.254;2023-03-01T05:19:11;21.95;;;9.43;;
5787;SDS011;2920;48.158;12.254;2023-03-01T05:21:40;25.05;;;11.57;;
5787;SDS011;2920;48.158;12.254;2023-03-01T05:24:26;20.27;;;9.88;;
5787;SDS011;2920;48.158;12.254;2023-03-01T05:26:52;25.05;;;10.98;;
5787;SDS011;2920;48.158;12.254;2023-03-01T05:29:18;20.27;;;10.80;;
5787;SDS011;2920;48.158;12.254;2023-03-01T05:31:50;19.83;;;10.02;;
5787;SDS011;2920;48.158;12.254;2023-03-01T05:34:23;23.55;;;9.52;;
5787;SDS011;2920;48.158;12.254;2023-03-01T05:36:53;19.20;;;9.65;;
5787;SDS011;2920;48.158;12.254;2023-03-01T05:39:28;21.20;;;10.13;;
5787;SDS011;2920;48.158;12.254;2023-03-01T05:41:58;23.15;;;10.15;;
5787;SDS011;2920;48.158;12.254;2023-03-01T05:44:26;26.48;;;10.80;;
5787;SDS011;2920;48.158;12.254;2023-03-01T05:49:19;25.02;;;12.30;;
5787;SDS011;2920;48.158;12.254;2023-03-01T05:51:49;24.40;;;11.77;;
5787;SDS011;2920;48.158;12.254;2023-03-01T05:54:16;23.00;;;10.30;;
5787;SDS011;2920;48.158;12.254;2023-03-01T05:56:41;26.13;;;11.48;;
5787;SDS011;2920;48.158;12.254;2023-03-01T05:59:06;22.77;;;11.35;;
5787;SDS011;2920;48.158;12.254;2023-03-01T06:01:32;23.35;;;12.00;;
5787;SDS011;2920;48.158;12.254;2023-03-01T06:03:58;24.38;;;10.77;;
5787;SDS011;2920;48.158;12.254;2023-03-01T06:06:24;24.10;;;11.70;;
5787;SDS011;2920;48.158;12.254;2023-03-01T06:08:49;21.85;;;11.48;;
5787;SDS011;2920;48.158;12.254;2023-03-01T06:11:15;23.40;;;11.75;;
5787;SDS011;2920;48.158;12.254;2023-03-01T06:13:42;25.17;;;12.07;;
5787;SDS011;2920;48.158;12.254;2023-03-01T06:16:08;24.65;;;11.80;;
5787;SDS011;2920;48.158;12.254;2023-03-01T06:18:33;22.15;;;10.45;;
5787;SDS011;2920;48.158;12.254;2023-03-01T06:20:59;21.83;;;12.02;;
5787;SDS011;2920;48.158;12.254;2023-03-01T06:23:24;24.60;;;11.93;;
5787;SDS011;2920;48.158;12.254;2023-03-01T06:25:50;23.15;;;11.13;;
5787;SDS011;2920;48.158;12.254;2023-03-01T06:28:15;24.95;;;11.70;;
5787;SDS011;2920;48.158;12.254;2023-03-01T06:30:41;26.10;;;12.18;;
5787;SDS011;2920;48.158;12.254;2023-03-01T06:33:06;23.60;;;11.27;;
5787;SDS011;2920;48.158;12.254;2023-03-01T06:35:31;25.73;;;11.48;;
5787;SDS011;2920;48.158;12.254;2023-03-01T06:37:58;24.23;;;11.27;;
5787;SDS011;2920;48.158;12.254;2023-03-01T06:40:24;22.27;;;11.15;;
5787;SDS011;2920;48.158;12.254;2023-03-01T06:42:50;25.33;;;12.25;;
5787;SDS011;2920;48.158;12.254;2023-03-01T06:45:16;21.42;;;11.27;;
5787;SDS011;2920;48.158;12.254;2023-03-01T06:47:42;23.05;;;11.20;;
5787;SDS011;2920;48.158;12.254;2023-03-01T06:50:08;20.52;;;10.68;;
5787;SDS011;2920;48.158;12.254;2023-03-01T06:52:33;28.17;;;11.40;;
5787;SDS011;2920;48.158;12.254;2023-03-01T06:54:59;20.30;;;11.10;;
5787;SDS011;2920;48.158;12.254;2023-03-01T06:57:24;24.85;;;12.35;;
5787;SDS011;2920;48.158;12.254;2023-03-01T06:59:50;26.75;;;11.75;;
5787;SDS011;2920;48.158;12.254;2023-03-01T07:02:15;24.15;;;11.77;;
5787;SDS011;2920;48.158;12.254;2023-03-01T07:04:41;30.70;;;12.82;;
5787;SDS011;2920;48.158;12.254;2023-03-01T07:07:07;24.52;;;11.82;;
5787;SDS011;2920;48.158;12.254;2023-03-01T07:09:32;23.65;;;10.90;;
5787;SDS011;2920;48.158;12.254;2023-03-01T07:11:58;26.73;;;12.35;;
5787;SDS011;2920;48.158;12.254;2023-03-01T07:14:23;25.10;;;11.23;;
5787;SDS011;2920;48.158;12.254;2023-03-01T07:16:52;24.02;;;11.85;;
5787;SDS011;2920;48.158;12.254;2023-03-01T07:19:17;21.35;;;10.68;;
5787;SDS011;2920;48.158;12.254;2023-03-01T07:21:43;22.02;;;10.95;;
5787;SDS011;2920;48.158;12.254;2023-03-01T07:24:08;24.00;;;12.20;;
5787;SDS011;2920;48.158;12.254;2023-03-01T07:26:34;25.00;;;11.52;;
5787;SDS011;2920;48.158;12.254;2023-03-01T07:28:59;22.02;;;11.32;;
5787;SDS011;2920;48.158;12.254;2023-03-01T07:31:25;25.88;;;10.43;;
5787;SDS011;2920;48.158;12.254;2023-03-01T07:33:53;23.30;;;10.50;;
5787;SDS011;2920;48.158;12.254;2023-03-01T07:36:18;24.52;;;11.95;;
5787;SDS011;2920;48.158;12.254;2023-03-01T07:38:44;25.90;;;11.32;;
5787;SDS011;2920;48.158;12.254;2023-03-01T07:41:09;22.60;;;10.93;;
5787;SDS011;2920;48.158;12.254;2023-03-01T07:43:34;25.15;;;11.27;;
5787;SDS011;2920;48.158;12.254;2023-03-01T07:46:00;25.67;;;11.00;;
5787;SDS011;2920;48.158;12.254;2023-03-01T07:48:26;23.95;;;12.02;;
5787;SDS011;2920;48.158;12.254;2023-03-01T07:50:52;21.25;;;10.55;;
5787;SDS011;2920;48.158;12.254;2023-03-01T07:53:17;23.20;;;11.75;;
5787;SDS011;2920;48.158;12.254;2023-03-01T07:55:43;21.75;;;11.85;;
5787;SDS011;2920;48.158;12.254;2023-03-01T07:58:08;20.92;;;11.02;;
5787;SDS011;2920;48.158;12.254;2023-03-01T08:00:33;28.38;;;12.25;;
5787;SDS011;2920;48.158;12.254;2023-03-01T08:02:59;29.75;;;13.25;;
5787;SDS011;2920;48.158;12.254;2023-03-01T08:05:25;29.45;;;12.77;;
5787;SDS011;2920;48.158;12.254;2023-03-01T08:07:51;24.75;;;12.38;;
5787;SDS011;2920;48.158;12.254;2023-03-01T08:10:16;26.33;;;12.25;;
5787;SDS011;2920;48.158;12.254;2023-03-01T08:12:42;25.15;;;11.80;;
5787;SDS011;2920;48.158;12.254;2023-03-01T08:15:07;25.40;;;11.77;;
5787;SDS011;2920;48.158;12.254;2023-03-01T08:17:33;26.50;;;12.18;;
5787;SDS011;2920;48.158;12.254;2023-03-01T08:19:58;25.63;;;11.02;;
5787;SDS011;2920;48.158;12.254;2023-03-01T08:22:24;24.13;;;11.52;;
5787;SDS011;2920;48.158;12.254;2023-03-01T08:24:49;26.80;;;12.65;;
5787;SDS011;2920;48.158;12.254;2023-03-01T08:27:15;23.70;;;11.85;;
5787;SDS011;2920;48.158;12.254;2023-03-01T08:29:41;27.75;;;13.05;;
5787;SDS011;2920;48.158;12.254;2023-03-01T08:32:06;25.10;;;12.20;;
5787;SDS011;2920;48.158;12.254;2023-03-01T08:34:31;25.08;;;11.95;;
5787;SDS011;2920;48.158;12.254;2023-03-01T08:36:57;29.98;;;13.07;;
5787;SDS011;2920;48.158;12.254;2023-03-01T08:39:22;23.85;;;12.07;;
5787;SDS011;2920;48.158;12.254;2023-03-01T08:41:48;27.17;;;11.18;;
5787;SDS011;2920;48.158;12.254;2023-03-01T08:44:14;30.17;;;13.82;;
5787;SDS011;2920;48.158;12.254;2023-03-01T08:46:41;25.85;;;12.98;;
5787;SDS011;2920;48.158;12.254;2023-03-01T08:49:07;29.38;;;13.38;;
5787;SDS011;2920;48.158;12.254;2023-03-01T08:51:34;24.83;;;12.77;;
5787;SDS011;2920;48.158;12.254;2023-03-01T08:54:20;25.02;;;12.35;;
5787;SDS011;2920;48.158;12.254;2023-03-01T08:56:47;23.63;;;12.30;;
5787;SDS011;2920;48.158;12.254;2023-03-01T08:59:13;24.35;;;12.02;;
5787;SDS011;2920;48.158;12.254;2023-03-01T09:01:40;24.77;;;13.40;;
5787;SDS011;2920;48.158;12.254;2023-03-01T09:04:08;24.98;;;13.20;;
5787;SDS011;2920;48.158;12.254;2023-03-01T09:06:33;26.55;;;12.18;;
5787;SDS011;2920;48.158;12.254;2023-03-01T09:08:59;26.95;;;12.38;;
5787;SDS011;2920;48.158;12.254;2023-03-01T09:11:25;29.02;;;12.90;;
5787;SDS011;2920;48.158;12.254;2023-03-01T09:13:50;23.25;;;12.32;;
5787;SDS011;2920;48.158;12.254;2023-03-01T09:16:16;23.40;;;13.10;;
5787;SDS011;2920;48.158;12.254;2023-03-01T09:18:44;23.98;;;12.65;;
5787;SDS011;2920;48.158;12.254;2023-03-01T09:21:11;29.13;;;13.68;;
5787;SDS011;2920;48.158;12.254;2023-03-01T09:23:42;26.98;;;12.50;;
5787;SDS011;2920;48.158;12.254;2023-03-01T09:26:09;31.30;;;13.23;;
5787;SDS011;2920;48.158;12.254;2023-03-01T09:28:35;29.10;;;13.57;;
5787;SDS011;2920;48.158;12.254;2023-03-01T09:31:01;22.98;;;12.23;;
5787;SDS011;2920;48.158;12.254;2023-03-01T09:33:28;28.02;;;12.88;;
5787;SDS011;2920;48.158;12.254;2023-03-01T09:35:58;28.13;;;12.90;;
5787;SDS011;2920;48.158;12.254;2023-03-01T09:38:23;28.65;;;13.55;;
5787;SDS011;2920;48.158;12.254;2023-03-01T09:40:49;25.83;;;13.55;;
5787;SDS011;2920;48.158;12.254;2023-03-01T09:48:33;25.35;;;13.15;;
5787;SDS011;2920;48.158;12.254;2023-03-01T09:51:05;30.50;;;13.00;;
5787;SDS011;2920;48.158;12.254;2023-03-01T09:53:34;30.92;;;12.32;;
5787;SDS011;2920;48.158;12.254;2023-03-01T09:58:44;26.45;;;14.07;;
5787;SDS011;2920;48.158;12.254;2023-03-01T10:07:10;25.60;;;13.18;;
5787;SDS011;2920;48.158;12.254;2023-03-01T10:09:38;28.55;;;12.90;;
5787;SDS011;2920;48.158;12.254;2023-03-01T10:12:07;27.55;;;13.68;;
5787;SDS011;2920;48.158;12.254;2023-03-01T10:20:10;27.98;;;13.50;;
5787;SDS011;2920;48.158;12.254;2023-03-01T10:22:41;25.00;;;14.20;;
5787;SDS011;2920;48.158;12.254;2023-03-01T10:25:08;26.65;;;13.63;;
5787;SDS011;2920;48.158;12.254;2023-03-01T10:30:41;27.27;;;15.45;;
5787;SDS011;2920;48.158;12.254;2023-03-01T10:33:40;27.80;;;14.43;;
5787;SDS011;2920;48.158;12.254;2023-03-01T10:36:00;28.65;;;14.23;;
5787;SDS011;2920;48.158;12.254;2023-03-01T10:38:26;24.83;;;13.45;;
5787;SDS011;2920;48.158;12.254;2023-03-01T10:40:56;32.63;;;14.90;;
5787;SDS011;2920;48.158;12.254;2023-03-01T10:43:23;28.52;;;13.52;;
5787;SDS011;2920;48.158;12.254;2023-03-01T10:45:49;28.55;;;13.90;;
5787;SDS011;2920;48.158;12.254;2023-03-01T10:48:19;28.27;;;15.70;;
5787;SDS011;2920;48.158;12.254;2023-03-01T10:51:03;24.95;;;13.82;;
5787;SDS011;2920;48.158;12.254;2023-03-01T10:56:04;26.70;;;13.27;;
5787;SDS011;2920;48.158;12.254;2023-03-01T10:58:31;24.98;;;13.95;;
5787;SDS011;2920;48.158;12.254;2023-03-01T11:01:03;27.65;;;14.45;;
5787;SDS011;2920;48.158;12.254;2023-03-01T11:03:33;26.90;;;14.45;;
5787;SDS011;2920;48.158;12.254;2023-03-01T11:06:02;22.88;;;12.60;;
5787;SDS011;2920;48.158;12.254;2023-03-01T11:08:41;27.90;;;14.27;;
5787;SDS011;2920;48.158;12.254;2023-03-01T11:14:00;30.90;;;14.82;;
5787;SDS011;2920;48.158;12.254;2023-03-01T11:18:59;28.60;;;13.85;;
5787;SDS011;2920;48.158;12.254;2023-03-01T11:24:39;30.73;;;14.48;;
5787;SDS011;2920;48.158;12.254;2023-03-01T11:27:15;29.25;;;13.82;;
5787;SDS011;2920;48.158;12.254;2023-03-01T11:29:44;28.48;;;14.20;;
5787;SDS011;2920;48.158;12.254;2023-03-01T11:32:12;27.30;;;14.65;;
5787;SDS011;2920;48.158;12.254;2023-03-01T11:39:58;27.33;;;13.98;;
5787;SDS011;2920;48.158;12.254;2023-03-01T11:45:16;24.88;;;14.13;;
5787;SDS011;2920;48.158;12.254;2023-03-01T11:50:28;25.45;;;14.10;;
5787;SDS011;2920;48.158;12.254;2023-03-01T11:58:33;29.30;;;13.82;;
5787;SDS011;2920;48.158;12.254;2023-03-01T12:01:16;26.05;;;14.27;;
5787;SDS011;2920;48.158;12.254;2023-03-01T12:09:38;25.80;;;14.77;;
5787;SDS011;2920;48.158;12.254;2023-03-01T12:19:56;26.37;;;13.37;;
5787;SDS011;2920;48.158;12.254;2023-03-01T12:38:24;23.27;;;14.05;;
5787;SDS011;2920;48.158;12.254;2023-03-01T12:44:08;24.77;;;13.82;;
5787;SDS011;2920;48.158;12.254;2023-03-01T12:49:34;28.48;;;13.45;;
5787;SDS011;2920;48.158;12.254;2023-03-01T12:52:16;25.13;;;13.23;;
5787;SDS011;2920;48.158;12.254;2023-03-01T12:54:47;26.88;;;13.65;;
5787;SDS011;2920;48.158;12.254;2023-03-01T12:59:59;25.63;;;13.80;;
5787;SDS011;2920;48.158;12.254;2023-03-01T13:02:44;22.23;;;12.95;;
5787;SDS011;2920;48.158;12.254;2023-03-01T13:05:27;27.13;;;13.63;;
5787;SDS011;2920;48.158;12.254;2023-03-01T13:08:19;24.48;;;13.25;;
5787;SDS011;2920;48.158;12.254;2023-03-01T13:10:48;23.20;;;12.82;;
5787;SDS011;2920;48.158;12.254;2023-03-01T13:15:44;24.77;;;13.38;;
5787;SDS011;2920;48.158;12.254;2023-03-01T13:23:28;21.83;;;12.83;;
5787;SDS011;2920;48.158;12.254;2023-03-01T13:26:09;23.65;;;13.20;;
5787;SDS011;2920;48.158;12.254;2023-03-01T13:28:52;25.38;;;14.10;;
5787;SDS011;2920;48.158;12.254;2023-03-01T13:33:49;24.42;;;13.45;;
5787;SDS011;2920;48.158;12.254;2023-03-01T13:49:48;22.77;;;15.02;;
5787;SDS011;2920;48.158;12.254;2023-03-01T13:57:42;25.70;;;13.18;;
5787;SDS011;2920;48.158;12.254;2023-03-01T14:00:29;22.80;;;12.90;;
5787;SDS011;2920;48.158;12.254;2023-03-01T14:03:10;18.98;;;12.23;;
5787;SDS011;2920;48.158;12.254;2023-03-01T14:05:36;23.92;;;13.98;;
5787;SDS011;2920;48.158;12.254;2023-03-01T14:08:03;20.33;;;12.40;;
5787;SDS011;2920;48.158;12.254;2023-03-01T14:10:32;20.30;;;12.77;;
5787;SDS011;2920;48.158;12.254;2023-03-01T14:13:22;24.38;;;13.90;;
5787;SDS011;2920;48.158;12.254;2023-03-01T14:16:32;20.90;;;12.00;;
5787;SDS011;2920;48.158;12.254;2023-03-01T14:19:08;20.98;;;11.63;;
5787;SDS011;2920;48.158;12.254;2023-03-01T14:21:39;19.80;;;12.30;;
5787;SDS011;2920;48.158;12.254;2023-03-01T14:24:04;22.50;;;12.05;;
5787;SDS011;2920;48.158;12.254;2023-03-01T14:26:30;21.00;;;12.70;;
5787;SDS011;2920;48.158;12.254;2023-03-01T14:28:57;19.08;;;11.75;;
5787;SDS011;2920;48.158;12.254;2023-03-01T14:31:34;19.80;;;11.55;;
5787;SDS011;2920;48.158;12.254;2023-03-01T14:34:03;21.60;;;10.85;;
5787;SDS011;2920;48.158;12.254;2023-03-01T14:36:29;24.40;;;12.98;;
5787;SDS011;2920;48.158;12.254;2023-03-01T14:38:55;19.52;;;11.10;;
5787;SDS011;2920;48.158;12.254;2023-03-01T14:41:25;17.80;;;10.60;;
5787;SDS011;2920;48.158;12.254;2023-03-01T14:43:57;22.55;;;12.02;;
5787;SDS011;2920;48.158;12.254;2023-03-01T14:46:24;23.40;;;11.35;;
5787;SDS011;2920;48.158;12.254;2023-03-01T14:48:53;19.70;;;11.38;;
5787;SDS011;2920;48.158;12.254;2023-03-01T14:51:21;19.27;;;10.80;;
5787;SDS011;2920;48.158;12.254;2023-03-01T14:53:47;16.98;;;10.35;;
5787;SDS011;2920;48.158;12.254;2023-03-01T14:56:13;21.23;;;10.57;;
5787;SDS011;2920;48.158;12.254;2023-03-01T14:58:39;22.45;;;11.10;;
5787;SDS011;2920;48.158;12.254;2023-03-01T15:01:04;20.52;;;10.73;;
5787;SDS011;2920;48.158;12.254;2023-03-01T15:06:00;18.25;;;9.55;;
5787;SDS011;2920;48.158;12.254;2023-03-01T15:08:26;18.25;;;10.02;;
5787;SDS011;2920;48.158;12.254;2023-03-01T15:13:38;17.35;;;9.48;;
5787;SDS011;2920;48.158;12.254;2023-03-01T15:18:36;19.15;;;9.77;;
5787;SDS011;2920;48.158;12.254;2023-03-01T15:21:18;16.17;;;8.75;;
5787;SDS011;2920;48.158;12.254;2023-03-01T15:23:52;25.58;;;9.68;;
5787;SDS011;2920;48.158;12.254;2023-03-01T15:26:29;16.20;;;9.75;;
5787;SDS011;2920;48.158;12.254;2023-03-01T15:28:56;16.65;;;9.02;;
5787;SDS011;2920;48.158;12.254;2023-03-01T15:31:37;16.75;;;9.13;;
5787;SDS011;2920;48.158;12.254;2023-03-01T15:34:07;19.80;;;8.85;;
5787;SDS011;2920;48.158;12.254;2023-03-01T15:36:43;15.82;;;8.23;;
5787;SDS011;2920;48.158;12.254;2023-03-01T15:41:58;15.68;;;8.32;;
5787;SDS011;2920;48.158;12.254;2023-03-01T15:44:28;18.95;;;8.18;;
5787;SDS011;2920;48.158;12.254;2023-03-01T15:46:55;14.88;;;8.45;;
5787;SDS011;2920;48.158;12.254;2023-03-01T15:49:39;20.50;;;9.32;;
5787;SDS011;2920;48.158;12.254;2023-03-01T15:52:11;18.45;;;8.70;;
5787;SDS011;2920;48.158;12.254;2023-03-01T15:55:14;17.27;;;7.95;;
5787;SDS011;2920;48.158;12.254;2023-03-01T15:57:41;18.08;;;8.60;;
5787;SDS011;2920;48.158;12.254;2023-03-01T16:00:09;15.82;;;8.80;;
5787;SDS011;2920;48.158;12.254;2023-03-01T16:02:36;19.75;;;8.90;;
5787;SDS011;2920;48.158;12.254;2023-03-01T16:05:02;15.82;;;8.23;;
5787;SDS011;2920;48.158;12.254;2023-03-01T16:07:28;18.55;;;9.27;;
5787;SDS011;2920;48.158;12.254;2023-03-01T16:09:53;14.38;;;8.27;;
5787;SDS011;2920;48.158;12.254;2023-03-01T16:12:19;16.63;;;8.15;;
5787;SDS011;2920;48.158;12.254;2023-03-01T16:14:46;19.42;;;9.45;;
5787;SDS011;2920;48.158;12.254;2023-03-01T16:17:13;19.17;;;9.07;;
5787;SDS011;2920;48.158;12.254;2023-03-01T16:19:38;18.15;;;7.93;;
5787;SDS011;2920;48.158;12.254;2023-03-01T16:22:05;16.38;;;7.90;;
5787;SDS011;2920;48.158;12.254;2023-03-01T16:24:30;17.83;;;8.40;;
5787;SDS011;2920;48.158;12.254;2023-03-01T16:26:55;15.65;;;7.30;;
5787;SDS011;2920;48.158;12.254;2023-03-01T16:29:21;16.30;;;8.07;;
5787;SDS011;2920;48.158;12.254;2023-03-01T16:31:46;14.25;;;7.45;;
5787;SDS011;2920;48.158;12.254;2023-03-01T16:34:12;13.52;;;6.85;;
5787;SDS011;2920;48.158;12.254;2023-03-01T16:36:37;24.67;;;11.23;;
5787;SDS011;2920;48.158;12.254;2023-03-01T16:39:03;18.75;;;9.48;;
5787;SDS011;2920;48.158;12.254;2023-03-01T16:41:29;15.95;;;9.05;;
5787;SDS011;2920;48.158;12.254;2023-03-01T16:43:54;19.15;;;8.55;;
5787;SDS011;2920;48.158;12.254;2023-03-01T16:46:24;17.25;;;7.43;;
5787;SDS011;2920;48.158;12.254;2023-03-01T16:48:51;20.23;;;8.82;;
5787;SDS011;2920;48.158;12.254;2023-03-01T16:51:17;19.15;;;8.02;;
5787;SDS011;2920;48.158;12.254;2023-03-01T16:53:43;18.70;;;8.25;;
5787;SDS011;2920;48.158;12.254;2023-03-01T16:56:09;16.70;;;8.38;;
5787;SDS011;2920;48.158;12.254;2023-03-01T16:58:36;17.40;;;8.07;;
5787;SDS011;2920;48.158;12.254;2023-03-01T17:01:10;40.33;;;16.98;;
5787;SDS011;2920;48.158;12.254;2023-03-01T17:03:35;29.65;;;12.70;;
5787;SDS011;2920;48.158;12.254;2023-03-01T17:06:02;17.98;;;9.32;;
5787;SDS011;2920;48.158;12.254;2023-03-01T17:08:29;17.48;;;8.95;;